createdAt,value
2019-04-11T00:00:50.569Z,98853.91
2019-04-11T00:03:22.405Z,98857.53
2019-04-11T00:05:54.899Z,98847.94
2019-04-11T00:08:27.956Z,98856.55
2019-04-11T00:10:59.725Z,98865.24
2019-04-11T00:13:34.666Z,98871.83
2019-04-11T00:16:05.160Z,98877.56
2019-04-11T00:18:36.954Z,98875.28
2019-04-11T00:21:08.758Z,98870.22
2019-04-11T00:23:40.622Z,98878.59
2019-04-11T00:26:13.841Z,98877.52
2019-04-11T00:28:45.843Z,98883.95
2019-04-11T00:31:18.880Z,98884.64
2019-04-11T00:33:50.854Z,98880.45
2019-04-11T00:36:22.649Z,98890.00
2019-04-11T00:38:55.161Z,98893.02
2019-04-11T00:41:27.999Z,98896.53
2019-04-11T00:44:00.786Z,98904.63
2019-04-11T00:46:34.214Z,98896.37
2019-04-11T00:49:06.287Z,98900.39
2019-04-11T00:51:38.160Z,98908.17
2019-04-11T00:54:10.841Z,98906.55
2019-04-11T00:56:42.817Z,98909.19
2019-04-11T00:59:16.216Z,98912.55
2019-04-11T01:01:49.942Z,98918.80
2019-04-11T01:04:21.569Z,98918.09
2019-04-11T01:06:54.348Z,98922.65
2019-04-11T01:09:26.414Z,98917.40
2019-04-11T01:11:58.472Z,98914.74
2019-04-11T01:14:30.449Z,98907.34
2019-04-11T01:17:03.218Z,98909.73
2019-04-11T01:19:35.175Z,98905.24
2019-04-11T01:22:07.715Z,98912.45
2019-04-11T01:24:39.894Z,98910.29
2019-04-11T01:27:11.899Z,98909.92
2019-04-11T01:29:43.998Z,98910.75
2019-04-11T01:32:16.039Z,98912.31
2019-04-11T01:34:48.693Z,98912.15
2019-04-11T01:37:20.480Z,98908.20
2019-04-11T01:39:53.867Z,98909.96
2019-04-11T01:42:25.536Z,98905.97
2019-04-11T01:44:57.579Z,98905.20
2019-04-11T01:47:47.481Z,98908.70
2019-04-11T01:50:20.987Z,98911.13
2019-04-11T01:52:52.963Z,98913.61
2019-04-11T01:55:24.681Z,98908.63
2019-04-11T01:57:56.537Z,98911.25
2019-04-11T02:00:36.597Z,98916.27
2019-04-11T02:03:10.722Z,98914.64
2019-04-11T02:05:43.506Z,98915.93
2019-04-11T02:08:15.467Z,98909.63
2019-04-11T02:10:47.311Z,98912.78
2019-04-11T02:13:19.551Z,98914.61
2019-04-11T02:15:53.365Z,98914.14
2019-04-11T02:18:25.639Z,98922.05
2019-04-11T02:20:57.678Z,98917.63
2019-04-11T02:23:31.274Z,98916.66
2019-04-11T02:26:11.479Z,98919.15
2019-04-11T02:28:43.054Z,98925.36
2019-04-11T02:31:14.985Z,98931.38
2019-04-11T02:33:47.002Z,98934.78
2019-04-11T02:36:20.710Z,98934.94
2019-04-11T02:38:55.160Z,98937.52
2019-04-11T02:41:27.474Z,98939.85
2019-04-11T02:44:01.329Z,98936.67
2019-04-11T02:46:42.840Z,98931.57
2019-04-11T02:49:07.932Z,98936.75
2019-04-11T02:51:39.477Z,98931.80
2019-04-11T02:54:11.650Z,98914.45
2019-04-11T02:56:47.092Z,98913.76
2019-04-11T02:59:19.617Z,98916.05
2019-04-11T03:01:52.980Z,98902.81
2019-04-11T03:04:26.797Z,98907.73
2019-04-11T03:07:00.090Z,98923.00
2019-04-11T03:09:32.769Z,98935.88
2019-04-11T03:12:05.285Z,98933.70
2019-04-11T03:14:49.740Z,98925.53
2019-04-11T03:17:19.940Z,98925.23
2019-04-11T03:20:00.940Z,98922.28
2019-04-11T03:22:18.313Z,98922.31
2019-04-11T03:24:51.241Z,98924.37
2019-04-11T03:27:26.140Z,98935.13
2019-04-11T03:29:58.092Z,98925.03
2019-04-11T03:33:16.241Z,98924.84
2019-04-11T03:36:08.649Z,98931.28
2019-04-11T03:37:58.670Z,98934.56
2019-04-11T03:40:33.586Z,98942.70
2019-04-11T03:43:00.071Z,98953.91
2019-04-11T03:45:41.668Z,98952.30
2019-04-11T03:48:05.901Z,98955.03
2019-04-11T03:50:29.898Z,98952.08
2019-04-11T03:53:01.116Z,98952.31
2019-04-11T03:55:32.959Z,98957.37
2019-04-11T03:58:06.173Z,98954.87
2019-04-11T04:00:42.882Z,98965.48
2019-04-11T04:03:14.203Z,98966.32
2019-04-11T04:05:46.233Z,98967.17
2019-04-11T04:08:20.221Z,98963.60
2019-04-11T04:11:10.117Z,98966.32
2019-04-11T04:13:45.511Z,98967.95
2019-04-11T04:16:36.359Z,98967.81
2019-04-11T04:19:16.192Z,98967.52
2019-04-11T04:21:53.264Z,98970.26
2019-04-11T04:24:28.765Z,98969.73
2019-04-11T04:27:02.100Z,98966.62
2019-04-11T04:29:36.954Z,98972.34
2019-04-11T04:32:08.579Z,98963.84
2019-04-11T04:34:42.175Z,98968.92
2019-04-11T04:37:14.710Z,98969.27
2019-04-11T04:39:48.026Z,98964.94
2019-04-11T04:42:27.232Z,98968.12
2019-04-11T04:44:55.940Z,98958.73
2019-04-11T04:47:36.816Z,98967.86
2019-04-11T04:50:02.201Z,98975.94
2019-04-11T04:52:36.701Z,98969.11
2019-04-11T04:55:08.673Z,98970.50
2019-04-11T04:57:42.764Z,98966.08
2019-04-11T05:00:15.072Z,98972.00
2019-04-11T05:02:48.024Z,98970.20
2019-04-11T05:05:21.888Z,98968.91
2019-04-11T05:07:54.175Z,98968.60
2019-04-11T05:10:26.363Z,98975.03
2019-04-11T05:12:59.217Z,98974.48
2019-04-11T05:15:32.351Z,98970.93
2019-04-11T05:18:04.297Z,98971.59
2019-04-11T05:20:36.387Z,98971.53
2019-04-11T05:23:08.511Z,98965.95
2019-04-11T05:25:40.516Z,98976.95
2019-04-11T05:28:12.269Z,98984.06
2019-04-11T05:30:44.963Z,98986.24
2019-04-11T05:33:17.818Z,98987.19
2019-04-11T05:35:50.059Z,98987.03
2019-04-11T05:38:23.062Z,98984.44
2019-04-11T05:40:56.670Z,98989.19
2019-04-11T05:43:31.895Z,98990.03
2019-04-11T05:46:07.182Z,98981.53
2019-04-11T05:48:38.988Z,98987.64
2019-04-11T05:51:10.914Z,98989.09
2019-04-11T05:53:43.711Z,98979.93
2019-04-11T05:56:18.765Z,98987.64
2019-04-11T05:58:52.197Z,98994.12
2019-04-11T06:01:31.539Z,98994.62
2019-04-11T06:04:05.957Z,98997.17
2019-04-11T06:06:40.218Z,99003.13
2019-04-11T06:09:16.156Z,99006.78
2019-04-11T06:11:57.231Z,99006.44
2019-04-11T06:14:29.678Z,99012.83
2019-04-11T06:17:02.978Z,99016.14
2019-04-11T06:19:53.555Z,99020.17
2019-04-11T06:22:25.627Z,99022.75
2019-04-11T06:25:19.240Z,99017.78
2019-04-11T06:27:53.677Z,99014.48
2019-04-11T06:30:36.698Z,99016.98
2019-04-11T06:33:16.499Z,99020.25
2019-04-11T06:36:06.485Z,99018.41
2019-04-11T06:38:52.164Z,99023.44
2019-04-11T06:41:32.758Z,99042.13
2019-04-11T06:45:48.148Z,99038.63
2019-04-11T06:48:38.072Z,99040.49
2019-04-11T06:51:15.401Z,99042.28
2019-04-11T06:53:48.880Z,99046.84
2019-04-11T06:56:29.333Z,99040.39
2019-04-11T06:59:02.277Z,99042.28
2019-04-11T07:01:34.203Z,99044.09
2019-04-11T07:04:09.175Z,99048.63
2019-04-11T07:06:43.725Z,99049.17
2019-04-11T07:09:26.902Z,99051.47
2019-04-11T07:12:01.355Z,99061.18
2019-04-11T07:14:35.419Z,99051.62
2019-04-11T07:17:25.373Z,99055.42
2019-04-11T07:20:08.728Z,99051.31
2019-04-11T07:22:59.413Z,99054.56
2019-04-11T07:25:48.351Z,99056.45
2019-04-11T07:28:27.814Z,99053.27
2019-04-11T07:31:17.590Z,99056.04
2019-04-11T07:34:08.757Z,99055.28
2019-04-11T07:37:00.130Z,99049.59
2019-04-11T07:39:51.632Z,99043.89
2019-04-11T07:42:41.656Z,99054.48
2019-04-11T07:45:32.240Z,99057.64
2019-04-11T07:48:12.824Z,99051.70
2019-04-11T07:50:44.547Z,99049.31
2019-04-11T07:53:18.143Z,99048.61
2019-04-11T07:55:51.021Z,99052.32
2019-04-11T07:58:24.400Z,99048.66
2019-04-11T08:01:14.733Z,99055.12
2019-04-11T08:03:51.753Z,99049.70
2019-04-11T08:06:35.127Z,99049.70
2019-04-11T08:09:18.151Z,99057.50
2019-04-11T08:11:54.616Z,99058.55
2019-04-11T08:14:37.013Z,99060.66
2019-04-11T08:17:11.413Z,99057.14
2019-04-11T08:19:57.480Z,99062.97
2019-04-11T08:22:30.937Z,99061.59
2019-04-11T08:25:07.264Z,99059.09
2019-04-11T08:27:52.128Z,99054.45
2019-04-11T08:30:14.943Z,99052.23
2019-04-11T08:32:48.202Z,99045.88
2019-04-11T08:35:28.367Z,99057.04
2019-04-11T08:38:02.901Z,99057.23
2019-04-11T08:40:37.737Z,99055.23
2019-04-11T08:43:11.061Z,99057.16
2019-04-11T08:45:46.533Z,99053.24
2019-04-11T08:48:19.217Z,99056.92
2019-04-11T08:51:11.323Z,99058.89
2019-04-11T08:53:44.966Z,99061.89
2019-04-11T08:56:18.998Z,99056.55
2019-04-11T08:59:11.407Z,99061.35
2019-04-11T09:01:42.968Z,99056.72
2019-04-11T09:04:21.950Z,99053.75
2019-04-11T09:06:55.095Z,99056.34
2019-04-11T09:09:45.601Z,99056.41
2019-04-11T09:12:18.179Z,99054.81
2019-04-11T09:15:08.592Z,99054.78
2019-04-11T09:17:55.202Z,99053.82
2019-04-11T09:20:33.978Z,99051.27
2019-04-11T09:23:05.942Z,99053.91
2019-04-11T09:25:56.567Z,99053.27
2019-04-11T09:28:29.834Z,99060.69
2019-04-11T09:31:19.614Z,99059.44
2019-04-11T09:34:05.817Z,99058.48
2019-04-11T09:36:39.110Z,99055.56
2019-04-11T09:39:19.254Z,99051.56
2019-04-11T09:42:10.027Z,99054.86
2019-04-11T09:44:49.902Z,99052.81
2019-04-11T09:47:26.318Z,99051.90
2019-04-11T09:50:05.871Z,99043.23
2019-04-11T09:52:42.289Z,99050.70
2019-04-11T09:55:31.869Z,99048.81
2019-04-11T09:58:03.928Z,99051.80
2019-04-11T10:00:40.995Z,99049.22
2019-04-11T10:03:17.489Z,99050.39
2019-04-11T10:05:54.671Z,99042.19
2019-04-11T10:08:37.411Z,99046.08
2019-04-11T10:11:15.497Z,99048.25
2019-04-11T10:13:55.407Z,99043.94
2019-04-11T10:16:28.514Z,99047.83
2019-04-11T10:19:07.667Z,99044.03
2019-04-11T10:21:50.168Z,99047.64
2019-04-11T10:24:26.623Z,99051.62
2019-04-11T10:27:03.014Z,99044.05
2019-04-11T10:29:42.529Z,99038.25
2019-04-11T10:32:15.716Z,99047.34
2019-04-11T10:35:06.046Z,99045.95
2019-04-11T10:37:40.160Z,99043.81
2019-04-11T10:40:21.523Z,99042.52
2019-04-11T10:42:53.867Z,99039.91
2019-04-11T10:45:34.343Z,99044.25
2019-04-11T10:48:09.519Z,99040.39
2019-04-11T10:50:46.547Z,99037.65
2019-04-11T10:53:18.325Z,99040.66
2019-04-11T10:55:55.503Z,99041.52
2019-04-11T10:58:28.921Z,99046.41
2019-04-11T11:01:07.862Z,99037.94
2019-04-11T11:03:47.497Z,99040.30
2019-04-11T11:06:29.874Z,99034.19
2019-04-11T11:09:03.952Z,99033.30
2019-04-11T11:11:40.815Z,99044.36
2019-04-11T11:14:14.356Z,99041.28
2019-04-11T11:16:50.759Z,99044.66
2019-04-11T11:19:51.814Z,99034.55
2019-04-11T11:22:18.790Z,99031.84
2019-04-11T11:25:11.669Z,99033.85
2019-04-11T11:27:43.744Z,99030.94
2019-04-11T11:30:33.408Z,99026.05
2019-04-11T11:33:05.725Z,99020.97
2019-04-11T11:35:42.820Z,99022.30
2019-04-11T11:38:16.284Z,99022.75
2019-04-11T11:40:58.511Z,99022.00
2019-04-11T11:43:32.951Z,99021.22
2019-04-11T11:46:16.108Z,99027.61
2019-04-11T11:48:53.735Z,99033.63
2019-04-11T11:51:30.050Z,99025.42
2019-04-11T11:54:09.204Z,99023.06
2019-04-11T11:56:42.633Z,99020.73
2019-04-11T11:59:22.917Z,99026.56
2019-04-11T12:01:55.868Z,99023.52
2019-04-11T12:04:46.466Z,99017.48
2019-04-11T12:07:20.944Z,99020.41
2019-04-11T12:10:03.289Z,99023.03
2019-04-11T12:12:37.913Z,99020.55
2019-04-11T12:15:14.209Z,99023.47
2019-04-11T12:17:59.614Z,99022.73
2019-04-11T12:20:42.819Z,99017.69
2019-04-11T12:23:17.186Z,99014.30
2019-04-11T12:25:49.394Z,99019.84
2019-04-11T12:28:25.661Z,99024.00
2019-04-11T12:31:01.385Z,99020.40
2019-04-11T12:33:45.824Z,99018.63
2019-04-11T12:36:19.307Z,99011.80
2019-04-11T12:38:54.655Z,99008.30
2019-04-11T12:41:29.991Z,99014.69
2019-04-11T12:44:06.772Z,99005.55
2019-04-11T12:46:42.978Z,99009.13
2019-04-11T12:49:28.504Z,99004.41
2019-04-11T12:52:18.489Z,99002.81
2019-04-11T12:55:01.612Z,99010.26
2019-04-11T12:57:41.651Z,99008.01
2019-04-11T13:00:18.571Z,99012.89
2019-04-11T13:03:00.855Z,99009.05
2019-04-11T13:05:34.451Z,99004.25
2019-04-11T13:08:24.126Z,99001.27
2019-04-11T13:10:55.790Z,99008.86
2019-04-11T13:13:45.603Z,99001.16
2019-04-11T13:16:17.423Z,99004.63
2019-04-11T13:19:07.130Z,98999.05
2019-04-11T13:21:40.396Z,99010.14
2019-04-11T13:24:29.763Z,99009.76
2019-04-11T13:27:11.996Z,98999.25
2019-04-11T13:29:45.261Z,98996.72
2019-04-11T13:32:34.776Z,99012.81
2019-04-11T13:35:09.289Z,99013.91
2019-04-11T13:37:42.242Z,99004.51
2019-04-11T13:40:24.340Z,99014.26
2019-04-11T13:43:09.619Z,99014.07
2019-04-11T13:45:45.851Z,99011.23
2019-04-11T13:48:35.147Z,99001.37
2019-04-11T13:51:08.439Z,99004.38
2019-04-11T13:53:57.809Z,99003.77
2019-04-11T13:56:31.210Z,98999.36
2019-04-11T13:59:04.547Z,99004.23
2019-04-11T14:01:37.601Z,99003.02
2019-04-11T14:04:10.679Z,98997.27
2019-04-11T14:06:42.227Z,98992.23
2019-04-11T14:09:15.705Z,98994.64
2019-04-11T14:11:47.486Z,98993.31
2019-04-11T14:14:23.857Z,98984.60
2019-04-11T14:16:58.482Z,98984.83
2019-04-11T14:19:48.156Z,98983.88
2019-04-11T14:22:26.753Z,98981.13
2019-04-11T14:25:11.939Z,98990.02
2019-04-11T14:27:43.399Z,98986.37
2019-04-11T14:30:18.598Z,98989.33
2019-04-11T14:32:53.940Z,98982.55
2019-04-11T14:35:43.351Z,98973.61
2019-04-11T14:38:18.283Z,98967.90
2019-04-11T14:41:09.810Z,98972.58
2019-04-11T14:43:43.833Z,98977.61
2019-04-11T14:46:36.543Z,98980.68
2019-04-11T14:49:10.130Z,98977.41
2019-04-11T14:51:52.392Z,98981.02
2019-04-11T14:54:28.734Z,98978.27
2019-04-11T14:57:08.282Z,98972.24
2019-04-11T14:59:53.839Z,98975.76
2019-04-11T15:02:29.115Z,98975.05
2019-04-11T15:05:02.789Z,98970.45
2019-04-11T15:07:37.215Z,98963.96
2019-04-11T15:10:14.702Z,98969.38
2019-04-11T15:12:48.786Z,98963.92
2019-04-11T15:15:25.077Z,98972.75
2019-04-11T15:17:58.598Z,98973.89
2019-04-11T15:20:54.835Z,98974.14
2019-04-11T15:23:26.158Z,98970.33
2019-04-11T15:26:15.833Z,98959.94
2019-04-11T15:28:49.231Z,98962.98
2019-04-11T15:31:38.838Z,98956.61
2019-04-11T15:34:06.815Z,98958.77
2019-04-11T15:36:40.884Z,98954.20
2019-04-11T15:39:14.306Z,98958.53
2019-04-11T15:41:47.471Z,98960.30
2019-04-11T15:44:27.217Z,98956.28
2019-04-11T15:47:00.961Z,98962.02
2019-04-11T15:49:37.212Z,98957.28
2019-04-11T15:52:10.432Z,98953.83
2019-04-11T15:55:02.316Z,98956.55
2019-04-11T15:57:35.492Z,98955.27
2019-04-11T16:00:16.157Z,98955.98
2019-04-11T16:02:49.762Z,98955.10
2019-04-11T16:05:35.557Z,98962.99
2019-04-11T16:08:25.020Z,98962.64
2019-04-11T16:11:15.329Z,98966.30
2019-04-11T16:13:51.679Z,98972.52
2019-04-11T16:16:42.364Z,98965.70
2019-04-11T16:19:31.642Z,98967.52
2019-04-11T16:22:10.983Z,98971.53
2019-04-11T16:24:44.478Z,98973.98
2019-04-11T16:27:17.808Z,98977.34
2019-04-11T16:29:57.108Z,98979.59
2019-04-11T16:32:30.711Z,98985.62
2019-04-11T16:35:06.974Z,98987.23
2019-04-11T16:37:40.223Z,98994.77
2019-04-11T16:40:29.020Z,99002.47
2019-04-11T16:43:02.622Z,99008.00
2019-04-11T16:45:47.895Z,99015.52
2019-04-11T16:48:20.164Z,99010.55
2019-04-11T16:50:51.929Z,99015.80
2019-04-11T16:53:24.089Z,99014.84
2019-04-11T16:55:56.058Z,99020.38
2019-04-11T16:58:27.704Z,99018.77
2019-04-11T17:00:59.570Z,99025.03
2019-04-11T17:03:31.996Z,99026.77
2019-04-11T17:06:18.245Z,99032.03
2019-04-11T17:08:56.140Z,99034.98
2019-04-11T17:11:27.034Z,99036.20
2019-04-11T17:13:58.835Z,99037.46
2019-04-11T17:16:31.087Z,99043.75
2019-04-11T17:19:05.396Z,99048.06
2019-04-11T17:21:43.008Z,99046.66
2019-04-11T17:24:09.571Z,99054.09
2019-04-11T17:26:42.125Z,99060.61
2019-04-11T17:29:13.983Z,99063.41
2019-04-11T17:31:46.047Z,99067.30
2019-04-11T17:34:17.676Z,99065.80
2019-04-11T17:36:49.254Z,99063.13
2019-04-11T17:39:21.500Z,99073.80
2019-04-11T17:41:53.492Z,99074.23
2019-04-11T17:44:25.874Z,99084.27
2019-04-11T17:46:57.731Z,99080.38
2019-04-11T17:49:29.587Z,99079.61
2019-04-11T17:52:04.797Z,99082.21
2019-04-11T17:54:34.643Z,99084.59
2019-04-11T17:57:06.291Z,99077.45
2019-04-11T17:59:38.187Z,99072.27
2019-04-11T18:02:11.161Z,99067.52
2019-04-11T18:04:44.805Z,99067.72
2019-04-11T18:07:17.577Z,99068.48
2019-04-11T18:09:49.585Z,99062.87
2019-04-11T18:12:21.356Z,99063.72
2019-04-11T18:14:52.923Z,99059.17
2019-04-11T18:17:24.647Z,99055.17
2019-04-11T18:19:56.304Z,99056.36
2019-04-11T18:22:28.181Z,99057.88
2019-04-11T18:24:59.920Z,99052.98
2019-04-11T18:27:31.984Z,99052.44
2019-04-11T18:30:05.719Z,99049.16
2019-04-11T18:32:37.344Z,99052.17
2019-04-11T18:35:09.504Z,99047.66
2019-04-11T18:37:41.076Z,99057.44
2019-04-11T18:40:13.275Z,99050.73
2019-04-11T18:42:44.692Z,99048.34
2019-04-11T18:45:17.966Z,99052.23
2019-04-11T18:47:49.755Z,99055.55
2019-04-11T18:50:22.931Z,99056.51
2019-04-11T18:52:59.200Z,99059.85
2019-04-11T18:55:29.326Z,99052.85
2019-04-11T18:58:01.690Z,99050.56
2019-04-11T19:00:35.795Z,99056.16
2019-04-11T19:03:08.013Z,99049.14
2019-04-11T19:05:42.991Z,99047.94
2019-04-11T19:08:14.341Z,99053.12
2019-04-11T19:10:46.321Z,99053.75
2019-04-11T19:13:18.265Z,99050.20
2019-04-11T19:15:50.282Z,99050.73
2019-04-11T19:18:21.956Z,99050.52
2019-04-11T19:20:53.810Z,99048.80
2019-04-11T19:23:26.123Z,99049.46
2019-04-11T19:25:58.175Z,99043.19
2019-04-11T19:28:29.934Z,99042.14
2019-04-11T19:31:01.795Z,99045.06
2019-04-11T19:33:34.266Z,99044.94
2019-04-11T19:36:07.485Z,99052.38
2019-04-11T19:38:43.004Z,99047.20
2019-04-11T19:41:17.110Z,99050.34
2019-04-11T19:43:48.683Z,99047.33
2019-04-11T19:46:20.383Z,99046.56
2019-04-11T19:48:55.311Z,99043.44
2019-04-11T19:51:28.753Z,99046.88
2019-04-11T19:54:02.907Z,99047.17
2019-04-11T19:56:45.784Z,99048.70
2019-04-11T19:59:17.540Z,99042.63
2019-04-11T20:01:50.819Z,99042.03
2019-04-11T20:04:23.991Z,99036.11
2019-04-11T20:06:57.422Z,99033.12
2019-04-11T20:09:29.280Z,99031.84
2019-04-11T20:12:01.079Z,99028.59
2019-04-11T20:14:34.814Z,99027.48
2019-04-11T20:17:06.195Z,99033.64
2019-04-11T20:19:37.850Z,99035.19
2019-04-11T20:22:09.661Z,99036.08
2019-04-11T20:24:45.913Z,99027.42
2019-04-11T20:27:14.968Z,99025.13
2019-04-11T20:29:51.015Z,99032.02
2019-04-11T20:32:21.040Z,99030.03
2019-04-11T20:34:56.506Z,99024.16
2019-04-11T20:37:38.724Z,99028.77
2019-04-11T20:40:05.962Z,99026.31
2019-04-11T20:42:37.184Z,99022.00
2019-04-11T20:45:11.285Z,99026.72
2019-04-11T20:47:46.561Z,99020.95
2019-04-11T20:50:17.478Z,99015.42
2019-04-11T20:52:50.358Z,99018.04
2019-04-11T20:55:25.700Z,99008.62
2019-04-11T20:57:58.012Z,99004.42
2019-04-11T21:00:32.080Z,98998.75
2019-04-11T21:03:04.762Z,99002.77
2019-04-11T21:05:37.231Z,99003.84
2019-04-11T21:08:09.514Z,98999.02
2019-04-11T21:10:41.977Z,98992.43
2019-04-11T21:13:14.316Z,98991.38
2019-04-11T21:15:46.309Z,98994.58
2019-04-11T21:18:18.174Z,98990.45
2019-04-11T21:20:49.942Z,98994.05
2019-04-11T21:23:24.738Z,98988.82
2019-04-11T21:25:58.883Z,98988.89
2019-04-11T21:28:30.356Z,98995.70
2019-04-11T21:31:02.487Z,98993.37
2019-04-11T21:33:35.050Z,98997.38
2019-04-11T21:36:06.718Z,98995.45
2019-04-11T21:38:38.411Z,98992.89
2019-04-11T21:41:10.145Z,98990.86
2019-04-11T21:43:41.790Z,98993.24
2019-04-11T21:46:13.549Z,98995.98
2019-04-11T21:48:45.542Z,99000.40
2019-04-11T21:51:17.272Z,98997.70
2019-04-11T21:53:49.226Z,99002.05
2019-04-11T21:56:21.086Z,99009.20
2019-04-11T21:58:53.899Z,99002.45
2019-04-11T22:01:26.243Z,99002.16
2019-04-11T22:03:58.037Z,98999.56
2019-04-11T22:06:30.538Z,99003.75
2019-04-11T22:09:05.089Z,98999.56
2019-04-11T22:11:38.412Z,99005.34
2019-04-11T22:14:11.936Z,99000.86
2019-04-11T22:16:45.125Z,99008.36
2019-04-11T22:19:17.098Z,99005.80
2019-04-11T22:21:49.025Z,99008.47
2019-04-11T22:24:20.764Z,99011.39
2019-04-11T22:26:52.525Z,99009.46
2019-04-11T22:29:25.034Z,99007.30
2019-04-11T22:31:57.375Z,99013.15
2019-04-11T22:34:30.762Z,99015.88
2019-04-11T22:37:02.517Z,99019.43
2019-04-11T22:39:34.310Z,99021.19
2019-04-11T22:42:06.055Z,99021.23
2019-04-11T22:44:38.648Z,99021.45
2019-04-11T22:47:10.266Z,99025.88
2019-04-11T22:49:42.228Z,99026.41
2019-04-11T22:52:14.088Z,99032.17
2019-04-11T22:54:46.046Z,99025.78
2019-04-11T22:57:18.016Z,99025.25
2019-04-11T22:59:49.686Z,99030.53
2019-04-11T23:02:26.072Z,99025.71
2019-04-11T23:04:57.892Z,99032.94
2019-04-11T23:07:29.595Z,99030.81
2019-04-11T23:10:01.321Z,99031.17
2019-04-11T23:12:33.268Z,99035.42
2019-04-11T23:15:06.549Z,99036.29
2019-04-11T23:17:38.259Z,99035.39
2019-04-11T23:20:11.879Z,99031.76
2019-04-11T23:22:44.496Z,99034.33
2019-04-11T23:25:16.153Z,99030.49
2019-04-11T23:27:48.250Z,99030.89
2019-04-11T23:30:19.974Z,99031.94
2019-04-11T23:32:52.955Z,99032.36
2019-04-11T23:35:24.711Z,99035.59
2019-04-11T23:37:56.810Z,99032.40
2019-04-11T23:40:28.533Z,99032.04
2019-04-11T23:43:00.393Z,99028.15
2019-04-11T23:45:33.143Z,99032.20
2019-04-11T23:48:04.638Z,99030.48
2019-04-11T23:50:36.285Z,99031.27
2019-04-11T23:53:08.247Z,99031.38
2019-04-11T23:55:40.001Z,99028.58
2019-04-11T23:58:11.856Z,99025.79
